createdAt,value
2022-12-29T00:01:30.449Z,99862.56
2022-12-29T00:03:57.199Z,99866.03
2022-12-29T00:06:24.633Z,99871.31
2022-12-29T00:08:51.427Z,99853.75
2022-12-29T00:11:21.397Z,99847.59
2022-12-29T00:14:07.572Z,99830.97
2022-12-29T00:16:36.295Z,99838.78
2022-12-29T00:19:04.766Z,99835.28
2022-12-29T00:21:50.156Z,99821.19
2022-12-29T00:24:27.405Z,99825.56
2022-12-29T00:27:21.837Z,99816.75
2022-12-29T00:30:12.434Z,99807.09
2022-12-29T00:32:58.103Z,99819.34
2022-12-29T00:35:30.924Z,99804.44
2022-12-29T00:38:23.339Z,99802.66
2022-12-29T00:41:08.871Z,99783.34
2022-12-29T00:43:56.955Z,99783.34
2022-12-29T00:46:24.082Z,99785.97
2022-12-29T00:49:12.761Z,99779.81
2022-12-29T00:51:39.507Z,99768.44
2022-12-29T00:54:14.646Z,99758.72
2022-12-29T00:56:44.729Z,99756.09
2022-12-29T00:59:12.752Z,99747.34
2022-12-29T01:01:40.400Z,99753.47
2022-12-29T01:04:07.398Z,99757.88
2022-12-29T01:06:35.015Z,99749.13
2022-12-29T01:09:22.762Z,99757.00
2022-12-29T01:11:50.123Z,99756.97
2022-12-29T01:14:18.021Z,99754.38
2022-12-29T01:16:45.647Z,99749.22
2022-12-29T01:19:13.889Z,99744.00
2022-12-29T01:21:41.397Z,99741.41
2022-12-29T01:24:08.451Z,99741.47
2022-12-29T01:26:38.101Z,99754.66
2022-12-29T01:29:13.951Z,99752.03
2022-12-29T01:31:41.223Z,99752.06
2022-12-29T01:34:09.206Z,99746.84
2022-12-29T01:36:45.000Z,99756.56
2022-12-29T01:39:14.524Z,99755.72
2022-12-29T01:41:43.073Z,99757.53
2022-12-29T01:44:53.230Z,99759.31
2022-12-29T01:47:46.484Z,99753.22
2022-12-29T01:50:19.781Z,99754.13
2022-12-29T01:52:58.111Z,99762.00
2022-12-29T01:55:31.118Z,99750.63
2022-12-29T01:58:01.919Z,99755.03
2022-12-29T02:00:28.366Z,99755.84
2022-12-29T02:02:55.263Z,99736.69
2022-12-29T02:05:33.231Z,99752.31
2022-12-29T02:08:04.099Z,99754.13
2022-12-29T02:10:33.854Z,99760.22
2022-12-29T02:13:00.296Z,99761.94
2022-12-29T02:15:49.691Z,99764.56
2022-12-29T02:18:41.539Z,99770.69
2022-12-29T02:21:24.232Z,99783.81
2022-12-29T02:24:27.713Z,99768.88
2022-12-29T02:27:12.995Z,99776.75
2022-12-29T02:29:51.662Z,99749.56
2022-12-29T02:32:42.475Z,99759.19
2022-12-29T02:35:34.965Z,99751.28
2022-12-29T02:38:04.397Z,99765.28
2022-12-29T02:40:46.923Z,99760.03
2022-12-29T02:43:50.273Z,99745.13
2022-12-29T02:46:21.390Z,99729.41
2022-12-29T02:49:04.251Z,99761.81
2022-12-29T02:51:40.826Z,99740.78
2022-12-29T02:54:26.591Z,99760.09
2022-12-29T02:56:56.635Z,99740.81
2022-12-29T02:59:23.601Z,99739.06
2022-12-29T03:02:38.189Z,99739.91
2022-12-29T03:05:32.592Z,99746.94
2022-12-29T03:09:18.403Z,99725.06
2022-12-29T03:12:11.373Z,99743.50
2022-12-29T03:15:21.356Z,99749.66
2022-12-29T03:18:06.189Z,99753.19
2022-12-29T03:20:40.688Z,99753.19
2022-12-29T03:23:08.277Z,99750.56
2022-12-29T03:25:40.743Z,99749.66
2022-12-29T03:28:23.403Z,99747.06
2022-12-29T03:30:50.309Z,99749.69
2022-12-29T03:33:22.967Z,99742.75
2022-12-29T03:35:52.050Z,99748.00
2022-12-29T03:38:29.959Z,99753.25
2022-12-29T03:40:59.720Z,99755.91
2022-12-29T03:43:28.095Z,99750.63
2022-12-29T03:45:54.514Z,99741.06
2022-12-29T03:48:21.062Z,99748.88
2022-12-29T03:50:47.595Z,99736.63
2022-12-29T03:53:14.267Z,99739.25
2022-12-29T03:55:40.905Z,99744.56
2022-12-29T03:58:07.737Z,99738.47
2022-12-29T04:00:34.121Z,99729.75
2022-12-29T04:03:01.199Z,99742.00
2022-12-29T04:05:27.801Z,99743.81
2022-12-29T04:07:56.893Z,99747.31
2022-12-29T04:10:24.824Z,99757.78
2022-12-29T04:12:51.651Z,99765.66
2022-12-29T04:15:17.991Z,99770.00
2022-12-29T04:17:45.114Z,99772.66
2022-12-29T04:20:33.238Z,99786.66
2022-12-29T04:23:07.300Z,99780.56
2022-12-29T04:25:34.492Z,99768.28
2022-12-29T04:28:01.687Z,99766.56
2022-12-29T04:30:28.818Z,99769.19
2022-12-29T04:32:56.062Z,99779.69
2022-12-29T04:35:22.537Z,99782.31
2022-12-29T04:37:49.009Z,99797.19
2022-12-29T04:40:18.895Z,99792.81
2022-12-29T04:42:45.657Z,99785.81
2022-12-29T04:45:12.487Z,99782.31
2022-12-29T04:47:40.893Z,99786.66
2022-12-29T04:50:08.323Z,99778.78
2022-12-29T04:52:35.221Z,99772.63
2022-12-29T04:55:02.140Z,99780.56
2022-12-29T04:57:31.788Z,99780.50
2022-12-29T04:59:58.343Z,99792.78
2022-12-29T05:02:25.488Z,99790.19
2022-12-29T05:04:52.293Z,99794.59
2022-12-29T05:07:19.260Z,99798.06
2022-12-29T05:09:46.866Z,99813.84
2022-12-29T05:12:13.691Z,99804.22
2022-12-29T05:14:40.317Z,99806.88
2022-12-29T05:17:06.694Z,99806.88
2022-12-29T05:19:37.955Z,99808.69
2022-12-29T05:22:05.198Z,99815.72
2022-12-29T05:24:31.656Z,99811.38
2022-12-29T05:27:03.807Z,99812.31
2022-12-29T05:29:30.417Z,99807.09
2022-12-29T05:31:56.951Z,99795.78
2022-12-29T05:34:23.635Z,99804.53
2022-12-29T05:36:50.898Z,99808.94
2022-12-29T05:39:17.668Z,99810.69
2022-12-29T05:41:53.284Z,99822.09
2022-12-29T05:44:23.521Z,99821.22
2022-12-29T05:46:49.998Z,99811.59
2022-12-29T05:49:17.694Z,99832.63
2022-12-29T05:51:45.471Z,99831.78
2022-12-29T05:54:12.459Z,99822.16
2022-12-29T05:56:39.279Z,99819.56
2022-12-29T05:59:05.950Z,99830.06
2022-12-29T06:01:32.552Z,99837.09
2022-12-29T06:04:00.222Z,99823.09
2022-12-29T06:06:27.188Z,99841.47
2022-12-29T06:08:54.190Z,99835.34
2022-12-29T06:11:20.604Z,99831.84
2022-12-29T06:13:47.122Z,99823.97
2022-12-29T06:16:13.998Z,99834.47
2022-12-29T06:18:40.414Z,99833.56
2022-12-29T06:21:07.389Z,99834.47
2022-12-29T06:23:33.934Z,99830.97
2022-12-29T06:26:00.495Z,99846.72
2022-12-29T06:28:26.995Z,99837.09
2022-12-29T06:31:16.579Z,99839.72
2022-12-29T06:33:48.243Z,99852.88
2022-12-29T06:36:28.975Z,99848.47
2022-12-29T06:39:06.739Z,99852.84
2022-12-29T06:41:33.696Z,99851.16
2022-12-29T06:44:02.649Z,99868.66
2022-12-29T06:46:29.210Z,99860.81
2022-12-29T06:49:01.051Z,99870.41
2022-12-29T06:51:27.474Z,99867.78
2022-12-29T06:54:00.689Z,99874.78
2022-12-29T06:56:27.644Z,99863.41
2022-12-29T06:58:54.695Z,99865.13
2022-12-29T07:01:21.253Z,99868.63
2022-12-29T07:03:51.458Z,99859.00
2022-12-29T07:06:17.824Z,99867.75
2022-12-29T07:08:44.389Z,99868.59
2022-12-29T07:11:11.120Z,99866.00
2022-12-29T07:13:40.507Z,99857.25
2022-12-29T07:16:12.282Z,99861.63
2022-12-29T07:21:20.617Z,99862.47
2022-12-29T07:23:47.731Z,99879.97
2022-12-29T07:26:20.537Z,99886.94
2022-12-29T07:28:48.335Z,99872.97
2022-12-29T07:31:17.598Z,99867.72
2022-12-29T07:33:45.383Z,99873.84
2022-12-29T07:36:13.482Z,99889.63
2022-12-29T07:38:40.920Z,99872.09
2022-12-29T07:41:07.666Z,99879.09
2022-12-29T07:46:56.727Z,99899.25
2022-12-29T07:49:25.525Z,99879.16
2022-12-29T07:51:52.142Z,99880.03
2022-12-29T07:54:22.339Z,99895.81
2022-12-29T07:56:48.966Z,99892.31
2022-12-29T07:59:18.585Z,99897.56
2022-12-29T08:01:45.323Z,99870.47
2022-12-29T08:04:12.105Z,99882.72
2022-12-29T08:06:40.671Z,99896.69
2022-12-29T08:09:16.496Z,99867.81
2022-12-29T08:11:46.476Z,99857.31
2022-12-29T08:14:14.907Z,99875.66
2022-12-29T08:16:41.858Z,99868.66
2022-12-29T08:19:08.223Z,99870.41
2022-12-29T08:21:35.015Z,99866.88
2022-12-29T08:24:01.705Z,99851.19
2022-12-29T08:26:29.327Z,99869.50
2022-12-29T08:28:56.717Z,99868.59
2022-12-29T08:31:26.906Z,99865.09
2022-12-29T08:33:53.450Z,99863.31
2022-12-29T08:36:44.053Z,99868.59
2022-12-29T08:39:11.362Z,99866.84
2022-12-29T08:41:40.231Z,99880.84
2022-12-29T08:44:09.947Z,99884.34
2022-12-29T08:46:36.929Z,99894.84
2022-12-29T08:49:05.103Z,99877.38
2022-12-29T08:51:31.624Z,99890.47
2022-12-29T08:53:58.049Z,99892.25
2022-12-29T08:56:32.227Z,99898.34
2022-12-29T08:59:08.233Z,99887.84
2022-12-29T09:01:37.589Z,99890.50
2022-12-29T09:04:16.254Z,99913.22
2022-12-29T09:06:44.538Z,99907.13
2022-12-29T09:09:11.324Z,99904.50
2022-12-29T09:11:43.341Z,99902.75
2022-12-29T09:14:12.567Z,99904.50
2022-12-29T09:16:39.769Z,99921.09
2022-12-29T09:19:06.214Z,99928.13
2022-12-29T09:21:32.821Z,99928.09
2022-12-29T09:23:59.221Z,99958.72
2022-12-29T09:26:33.525Z,99946.50
2022-12-29T09:29:00.043Z,99937.78
2022-12-29T09:31:26.645Z,99934.31
2022-12-29T09:33:54.623Z,99971.06
2022-12-29T09:36:28.471Z,99974.56
2022-12-29T09:39:04.538Z,99964.94
2022-12-29T09:41:40.079Z,99980.69
2022-12-29T09:44:22.003Z,99980.69
2022-12-29T09:46:54.288Z,99982.44
2022-12-29T09:49:36.277Z,99998.16
2022-12-29T09:52:41.072Z,99994.69
2022-12-29T09:55:36.198Z,100005.16
2022-12-29T09:58:14.475Z,100007.78
2022-12-29T10:01:03.122Z,100020.03
2022-12-29T10:03:46.740Z,100023.53
2022-12-29T10:07:28.133Z,100030.50
2022-12-29T10:09:49.623Z,100042.72
2022-12-29T10:12:47.323Z,100039.25
2022-12-29T10:15:36.620Z,100041.00
2022-12-29T10:19:04.670Z,100037.50
2022-12-29T10:22:14.796Z,100032.28
2022-12-29T10:24:46.391Z,100044.50
2022-12-29T10:27:16.308Z,100044.50
2022-12-29T10:29:56.810Z,100054.09
2022-12-29T10:32:29.575Z,100065.47
2022-12-29T10:35:24.180Z,100056.69
2022-12-29T10:38:05.976Z,100066.31
2022-12-29T10:40:44.062Z,100075.94
2022-12-29T10:43:30.667Z,100068.94
2022-12-29T10:46:04.546Z,100089.91
2022-12-29T10:48:37.433Z,100090.78
2022-12-29T10:51:08.416Z,100104.78
2022-12-29T10:54:05.033Z,100097.78
2022-12-29T10:56:36.653Z,100118.78
2022-12-29T10:59:17.075Z,100111.78
2022-12-29T11:02:12.963Z,100124.03
2022-12-29T11:05:09.962Z,100124.03
2022-12-29T11:07:37.289Z,100125.75
2022-12-29T11:10:31.538Z,100130.91
2022-12-29T11:13:26.284Z,100135.25
2022-12-29T11:15:53.402Z,100142.13
2022-12-29T11:18:27.444Z,100136.84
2022-12-29T11:21:02.830Z,100143.91
2022-12-29T11:23:36.435Z,100143.91
2022-12-29T11:26:22.103Z,100167.56
2022-12-29T11:29:23.398Z,100164.91
2022-12-29T11:31:53.732Z,100165.81
2022-12-29T11:34:26.521Z,100170.19
2022-12-29T11:37:00.008Z,100169.34
2022-12-29T11:39:34.807Z,100161.50
2022-12-29T11:42:03.707Z,100173.75
2022-12-29T11:44:39.048Z,100173.72
2022-12-29T11:47:10.689Z,100181.59
2022-12-29T11:49:37.260Z,100189.50
2022-12-29T11:52:06.647Z,100195.63
2022-12-29T11:54:37.627Z,100185.13
2022-12-29T11:57:15.452Z,100188.63
2022-12-29T11:59:56.039Z,100199.09
2022-12-29T12:02:42.881Z,100204.03
2022-12-29T12:05:15.688Z,100207.88
2022-12-29T12:07:43.713Z,100200.22
2022-12-29T12:10:24.598Z,100196.03
2022-12-29T12:13:11.339Z,100206.31
2022-12-29T12:15:47.491Z,100207.50
2022-12-29T12:18:26.056Z,100208.63
2022-12-29T12:21:00.695Z,100220.22
2022-12-29T12:23:48.213Z,100214.13
2022-12-29T12:26:15.392Z,100220.31
2022-12-29T12:28:59.765Z,100211.72
2022-12-29T12:31:41.199Z,100226.53
2022-12-29T12:34:17.308Z,100225.63
2022-12-29T12:37:01.309Z,100233.50
2022-12-29T12:39:45.200Z,100236.81
2022-12-29T12:42:23.770Z,100242.03
2022-12-29T12:45:25.714Z,100237.03
2022-12-29T12:48:32.643Z,100232.09
2022-12-29T12:51:42.970Z,100237.72
2022-12-29T12:54:22.307Z,100237.94
2022-12-29T12:57:03.841Z,100245.09
2022-12-29T12:59:45.001Z,100240.84
2022-12-29T13:02:29.108Z,100237.31
2022-12-29T13:05:26.985Z,100260.19
2022-12-29T13:07:56.839Z,100250.59
2022-12-29T13:10:53.053Z,100258.53
2022-12-29T13:13:57.033Z,100259.44
2022-12-29T13:17:00.720Z,100258.59
2022-12-29T13:19:39.355Z,100275.25
2022-12-29T13:22:17.669Z,100278.75
2022-12-29T13:25:21.456Z,100258.63
2022-12-29T13:28:40.082Z,100266.53
2022-12-29T13:31:30.660Z,100281.41
2022-12-29T13:34:22.321Z,100274.41
2022-12-29T13:37:05.080Z,100277.91
2022-12-29T13:39:39.528Z,100275.28
2022-12-29T13:42:06.406Z,100267.44
2022-12-29T13:44:38.290Z,100277.91
2022-12-29T13:47:16.600Z,100271.75
2022-12-29T13:49:44.186Z,100272.63
2022-12-29T13:52:25.167Z,100264.75
2022-12-29T13:55:25.322Z,100267.38
2022-12-29T13:58:04.914Z,100279.66
2022-12-29T14:00:44.999Z,100264.78
2022-12-29T14:03:30.793Z,100277.91
2022-12-29T14:06:25.589Z,100262.16
2022-12-29T14:08:58.691Z,100256.00
2022-12-29T14:11:32.549Z,100263.06
2022-12-29T14:14:01.655Z,100266.53
2022-12-29T14:16:33.276Z,100270.94
2022-12-29T14:19:13.595Z,100265.66
2022-12-29T14:24:45.490Z,100284.97
2022-12-29T14:27:14.741Z,100284.13
2022-12-29T14:29:50.323Z,100294.66
2022-12-29T14:32:28.771Z,100300.75
2022-12-29T14:34:57.984Z,100298.16
2022-12-29T14:37:41.963Z,100308.66
2022-12-29T14:40:34.639Z,100302.50
2022-12-29T14:43:12.412Z,100301.63
2022-12-29T14:45:53.744Z,100302.50
2022-12-29T14:52:33.566Z,100312.94
2022-12-29T14:55:18.172Z,100324.31
2022-12-29T14:57:54.125Z,100327.81
2022-12-29T15:00:37.087Z,100320.75
2022-12-29T15:03:10.071Z,100306.75
2022-12-29T15:05:49.641Z,100319.88
2022-12-29T15:08:26.678Z,100312.03
2022-12-29T15:11:21.492Z,100315.50
2022-12-29T15:13:52.205Z,100326.00
2022-12-29T15:16:40.276Z,100318.16
2022-12-29T15:19:25.752Z,100319.00
2022-12-29T15:21:53.944Z,100320.75
2022-12-29T15:24:21.763Z,100316.41
2022-12-29T15:26:52.771Z,100326.91
2022-12-29T15:29:41.937Z,100322.56
2022-12-29T15:32:17.088Z,100323.41
2022-12-29T15:34:48.319Z,100318.16
2022-12-29T15:37:32.753Z,100318.16
2022-12-29T15:40:02.472Z,100321.66
2022-12-29T15:42:50.929Z,100325.13
2022-12-29T15:45:17.859Z,100336.50
2022-12-29T15:47:50.148Z,100336.50
2022-12-29T15:50:25.026Z,100331.25
2022-12-29T15:52:52.270Z,100347.88
2022-12-29T15:55:39.523Z,100345.25
2022-12-29T15:58:18.533Z,100351.38
2022-12-29T16:00:49.878Z,100348.75
2022-12-29T16:03:18.054Z,100356.59
2022-12-29T16:05:52.919Z,100363.63
2022-12-29T16:08:25.410Z,100361.00
2022-12-29T16:10:55.321Z,100366.25
2022-12-29T16:13:29.704Z,100368.00
2022-12-29T16:16:03.264Z,100369.75
2022-12-29T16:18:38.091Z,100369.72
2022-12-29T16:21:35.187Z,100370.59
2022-12-29T16:24:14.447Z,100376.72
2022-12-29T16:26:48.216Z,100372.34
2022-12-29T16:29:15.748Z,100378.47
2022-12-29T16:32:01.875Z,100374.97
2022-12-29T16:34:40.841Z,100399.44
2022-12-29T16:37:38.923Z,100388.06
2022-12-29T16:40:38.582Z,100386.28
2022-12-29T16:43:05.797Z,100383.69
2022-12-29T16:46:00.922Z,100389.78
2022-12-29T16:48:30.716Z,100390.63
2022-12-29T16:51:30.790Z,100396.75
2022-12-29T16:53:58.064Z,100398.50
2022-12-29T16:56:44.493Z,100395.84
2022-12-29T16:59:43.447Z,100396.69
2022-12-29T17:02:20.610Z,100414.19
2022-12-29T17:04:49.541Z,100412.41
2022-12-29T17:07:18.755Z,100419.34
2022-12-29T17:09:45.475Z,100417.59
2022-12-29T17:12:19.158Z,100421.94
2022-12-29T17:14:53.642Z,100425.44
2022-12-29T17:17:31.705Z,100440.25
2022-12-29T17:20:03.835Z,100436.72
2022-12-29T17:22:30.337Z,100453.31
2022-12-29T17:24:59.473Z,100456.78
2022-12-29T17:27:38.775Z,100474.25
2022-12-29T17:30:17.195Z,100457.59
2022-12-29T17:32:52.117Z,100460.22
2022-12-29T17:35:21.377Z,100462.81
2022-12-29T17:37:49.397Z,100464.53
2022-12-29T17:40:22.319Z,100483.72
2022-12-29T17:42:53.710Z,100498.53
2022-12-29T17:45:29.857Z,100484.53
2022-12-29T17:47:57.392Z,100493.25
2022-12-29T17:50:26.057Z,100494.09
2022-12-29T17:53:00.815Z,100492.34
2022-12-29T17:55:36.749Z,100482.72
2022-12-29T17:58:18.595Z,100489.66
2022-12-29T18:00:46.036Z,100487.91
2022-12-29T18:03:18.761Z,100489.59
2022-12-29T18:05:45.542Z,100500.94
2022-12-29T18:08:12.393Z,100500.03
2022-12-29T18:10:39.987Z,100502.63
2022-12-29T18:13:07.211Z,100498.22
2022-12-29T18:15:36.367Z,100515.69
2022-12-29T18:18:14.965Z,100512.16
2022-12-29T18:20:43.305Z,100520.88
2022-12-29T18:23:20.258Z,100517.38
2022-12-29T18:26:13.254Z,100516.47
2022-12-29T18:28:40.300Z,100531.34
2022-12-29T18:31:16.648Z,100526.06
2022-12-29T18:33:43.053Z,100519.06
2022-12-29T18:36:12.052Z,100538.22
2022-12-29T18:38:38.570Z,100547.81
2022-12-29T18:41:05.424Z,100542.59
2022-12-29T18:43:31.823Z,100554.84
2022-12-29T18:45:58.283Z,100551.31
2022-12-29T18:48:24.737Z,100539.06
2022-12-29T18:50:52.024Z,100556.56
2022-12-29T18:53:24.869Z,100545.22
2022-12-29T18:55:52.759Z,100551.25
2022-12-29T18:58:22.065Z,100553.88
2022-12-29T19:01:00.557Z,100559.94
2022-12-29T19:03:31.137Z,100565.19
2022-12-29T19:05:58.628Z,100564.31
2022-12-29T19:08:29.206Z,100566.06
2022-12-29T19:10:55.793Z,100540.63
2022-12-29T19:13:38.886Z,100558.16
2022-12-29T19:19:05.914Z,100566.94
2022-12-29T19:21:39.275Z,100558.19
2022-12-29T19:24:06.898Z,100567.78
2022-12-29T19:32:29.363Z,100559.72
2022-12-29T19:34:55.803Z,100574.66
2022-12-29T19:37:24.538Z,100588.63
2022-12-29T19:39:50.967Z,100585.97
2022-12-29T19:42:17.376Z,100606.88
2022-12-29T19:44:43.751Z,100584.22
2022-12-29T19:47:10.231Z,100581.53
2022-12-29T19:49:36.762Z,100584.19
2022-12-29T19:52:05.103Z,100588.53
2022-12-29T19:54:31.621Z,100593.72
2022-12-29T19:57:36.642Z,100594.56
2022-12-29T20:00:04.690Z,100597.19
2022-12-29T20:02:33.536Z,100608.53
2022-12-29T20:05:02.577Z,100594.53
2022-12-29T20:08:01.776Z,100601.50
2022-12-29T20:10:28.341Z,100606.69
2022-12-29T20:12:54.932Z,100606.63
2022-12-29T20:15:21.419Z,100604.84
2022-12-29T20:18:15.717Z,100612.59
2022-12-29T20:20:41.757Z,100617.91
2022-12-29T20:23:08.597Z,100613.53
2022-12-29T20:25:44.727Z,100620.50
2022-12-29T20:28:13.362Z,100620.47
2022-12-29T20:30:40.068Z,100623.09
2022-12-29T20:33:08.531Z,100620.38
2022-12-29T20:35:36.169Z,100630.97
2022-12-29T20:38:02.829Z,100631.84
2022-12-29T20:40:31.261Z,100637.91
2022-12-29T20:43:02.751Z,100632.72
2022-12-29T20:45:38.810Z,100641.50
2022-12-29T20:48:05.350Z,100638.00
2022-12-29T20:50:42.124Z,100627.53
2022-12-29T20:53:15.574Z,100635.38
2022-12-29T20:55:48.777Z,100623.16
2022-12-29T21:01:18.158Z,100647.59
2022-12-29T21:09:23.407Z,100645.00
2022-12-29T21:11:51.349Z,100652.03
2022-12-29T21:14:17.738Z,100662.50
2022-12-29T21:19:28.766Z,100665.06
2022-12-29T21:22:01.005Z,100672.00
2022-12-29T21:24:33.004Z,100675.53
2022-12-29T21:27:01.873Z,100682.47
2022-12-29T21:30:15.096Z,100674.59
2022-12-29T21:32:50.726Z,100681.47
2022-12-29T21:35:17.342Z,100690.13
2022-12-29T21:37:44.182Z,100695.34
2022-12-29T21:40:10.985Z,100692.72
2022-12-29T21:42:51.233Z,100691.81
2022-12-29T21:45:30.138Z,100691.78
2022-12-29T21:48:21.235Z,100700.44
2022-12-29T21:51:28.469Z,100708.25
2022-12-29T21:54:36.172Z,100712.56
2022-12-29T21:57:03.489Z,100721.19
2022-12-29T21:59:48.539Z,100719.41
2022-12-29T22:02:42.819Z,100718.44
2022-12-29T22:05:33.920Z,100726.25
2022-12-29T22:08:20.844Z,100748.84
2022-12-29T22:11:07.586Z,100741.00
2022-12-29T22:13:39.224Z,100738.41
2022-12-29T22:16:08.439Z,100744.47
2022-12-29T22:18:35.098Z,100749.66
2022-12-29T22:21:06.185Z,100759.22
2022-12-29T22:23:32.913Z,100759.16
2022-12-29T22:26:07.254Z,100760.91
2022-12-29T22:28:41.820Z,100763.50
2022-12-29T22:31:21.924Z,100776.53
2022-12-29T22:33:48.359Z,100776.53
2022-12-29T22:36:14.700Z,100775.66
2022-12-29T22:38:41.155Z,100783.50
2022-12-29T22:41:09.772Z,100792.22
2022-12-29T22:43:36.151Z,100799.13
2022-12-29T22:46:16.420Z,100803.50
2022-12-29T22:48:54.280Z,100805.19
2022-12-29T22:51:28.845Z,100806.06
2022-12-29T22:53:55.555Z,100810.34
2022-12-29T22:56:26.330Z,100816.41
2022-12-29T22:58:58.142Z,100823.44
2022-12-29T23:01:28.429Z,100835.56
2022-12-29T23:04:10.293Z,100838.13
2022-12-29T23:06:51.876Z,100845.16
2022-12-29T23:09:20.958Z,100842.59
2022-12-29T23:12:04.662Z,100844.34
2022-12-29T23:14:37.015Z,100838.22
2022-12-29T23:17:03.506Z,100839.88
2022-12-29T23:19:29.878Z,100833.78
2022-12-29T23:21:56.725Z,100851.19
2022-12-29T23:24:28.266Z,100850.22
2022-12-29T23:26:55.129Z,100850.97
2022-12-29T23:29:29.973Z,100851.84
2022-12-29T23:31:56.517Z,100852.59
2022-12-29T23:34:23.180Z,100853.53
2022-12-29T23:36:52.745Z,100852.59
2022-12-29T23:39:23.300Z,100856.03
2022-12-29T23:41:50.771Z,100869.03
2022-12-29T23:44:17.343Z,100864.78
2022-12-29T23:46:46.541Z,100869.09
2022-12-29T23:49:13.757Z,100862.88
2022-12-29T23:51:40.210Z,100867.25
2022-12-29T23:54:06.763Z,100865.50
2022-12-29T23:56:33.563Z,100863.69
2022-12-29T23:59:04.950Z,100865.38
